12:28
Airports
Links
Donate
Help keep this website running!
PayPal
Bitcoin
METAR
KBVY 181205Z 00000KT 10SM BKN028 OVC033 M06/M12 A3019 RMK AO2 T10561122
Current Weather Conditions at KBVY
MVFR 12:05:00 18-12-17
Automated station
Altimeter:30.19 hg
Temp:-5.6°c 23°f
Dew point:-12.2°c 10°f
Wind:0 knots, 0 mph, 0 m/s,
Variable direction
Visibility:10.0 statute miles
3300(OVC) Overcast
2800(BKN) Broken
Past METAR reports
VFR 11:53:00 18-12-17
Automated station
Altimeter:30.18 hg
Temp:-5.6°c 23°f
Dew point:-12.2°c 10°f
Wind:0 knots, 0 mph, 0 m/s,
Variable direction
Visibility:10.0 statute miles
3300(OVC) Overcast
2800(SCT) Scattered
KBVY 181153Z 00000KT 10SM SCT028 OVC033 M06/M12 A3018 RMK AO2 SLP219 T10561122 11056 21083 56011
VFR 10:53:00 18-12-17
Automated station, no observer
Altimeter:30.19 hg
Temp:-5.6°c 23°f
Dew point:-12.2°c 10°f
Wind:0 knots, 0 mph, 0 m/s,
Variable direction
Visibility:10.0 statute miles
6000(OVC) Overcast
KBVY 181053Z AUTO 00000KT 10SM OVC060 M06/M12 A3019 RMK AO2 SLP221 T10561122
VFR 09:53:00 18-12-17
Automated station, no observer
Altimeter:30.19 hg
Temp:-6.1°c 21°f
Dew point:-13.3°cf
Wind:0 knots, 0 mph, 0 m/s,
Variable direction
Visibility:10.0 statute miles
9000(OVC) Overcast
7000(BKN) Broken
KBVY 180953Z AUTO 00000KT 10SM BKN070 OVC090 M06/M13 A3019 RMK AO2 SLP222 T10611133
VFR 08:53:00 18-12-17
Automated station, no observer
Altimeter:30.22 hg
Temp:-6.1°c 21°f
Dew point:-12.8°c 10°f
Wind:0 knots, 0 mph, 0 m/s,
Variable direction
Visibility:10.0 statute miles
12000(FEW) A few
KBVY 180853Z AUTO 00000KT 10SM FEW120 M06/M13 A3022 RMK AO2 SLP230 T10611128 58005
VFR 07:53:00 18-12-17
Automated station, no observer
Altimeter:30.23 hg
Temp:-6.7°c 21°f
Dew point:-12.8°c 10°f
Wind:0 knots, 0 mph, 0 m/s,
Variable direction
Visibility:10.0 statute miles
(CLR) Clear
KBVY 180753Z AUTO 00000KT 10SM CLR M07/M13 A3023 RMK AO2 SLP235 T10671128
VFR 06:53:00 18-12-17
Automated station, no observer
Altimeter:30.24 hg
Temp:-7.2°c 19°f
Dew point:-12.2°c 10°f
Wind:0 knots, 0 mph, 0 m/s,
Variable direction
Visibility:10.0 statute miles
(CLR) Clear
KBVY 180653Z AUTO 00000KT 10SM CLR M07/M12 A3024 RMK AO2 SLP239 T10721122
TAF
No TAF for KBVY
Forecast at KBVY
No Forecast Reports for KBVY